Time;durP1;ratioP1;P1;durP2;ratioP2;P2;SDS_P1;SDS_P2;PMS_P1;PMS_P2;Temp;Humidity;BMP_temperature;BMP_pressure;BME280_temperature;BME280_humidity;BME280_pressure;Samples;Min_cycle;Max_cycle;Signal;HPM_P1;HPM_P2
2022/04/02 00:00:14;;;;;;;5.35;2.50;;;;;;;;;;5061615;28;20140;-61
2022/04/02 00:02:41;;;;;;;4.13;2.63;;;;;;;;;;5064211;28;20481;-61
2022/04/02 00:05:09;;;;;;;9.20;2.90;;;;;;;;;;5060358;28;20096;-61
2022/04/02 00:07:36;;;;;;;8.20;2.90;;;;;;;;;;5049800;28;20084;-60
2022/04/02 00:10:03;;;;;;;9.38;2.92;;;;;;;;;;5062135;28;20136;-61
2022/04/02 00:12:33;;;;;;;6.67;2.63;;;;;;;;;;5061215;28;20091;-61
2022/04/02 00:14:59;;;;;;;3.03;2.17;;;;;;;;;;5061420;28;20563;-60
2022/04/02 00:17:26;;;;;;;4.00;2.40;;;;;;;;;;5063896;28;20287;-61
2022/04/02 00:19:59;;;;;;;5.27;2.83;;;;;;;;;;5044232;28;20127;-61
2022/04/02 00:22:25;;;;;;;3.22;2.28;;;;;;;;;;5061299;28;20467;-61
2022/04/02 00:24:51;;;;;;;9.00;2.73;;;;;;;;;;5061659;28;20137;-58
2022/04/02 00:27:21;;;;;;;7.60;2.80;;;;;;;;;;5062962;28;20072;-61
2022/04/02 00:29:47;;;;;;;9.27;2.97;;;;;;;;;;5061686;28;20083;-59
2022/04/02 00:32:13;;;;;;;4.17;1.83;;;;;;;;;;5060809;28;20080;-59
2022/04/02 00:34:40;;;;;;;6.28;2.90;;;;;;;;;;5061494;28;20131;-59
2022/04/02 00:37:07;;;;;;;8.05;2.38;;;;;;;;;;5059096;28;20143;-60
2022/04/02 00:39:33;;;;;;;9.25;3.15;;;;;;;;;;5059868;28;20083;-59
2022/04/02 00:42:17;;;;;;;6.50;3.27;;;;;;;;;;5054760;28;20144;-59
2022/04/02 00:44:43;;;;;;;11.73;3.10;;;;;;;;;;5042052;28;20088;-59
2022/04/02 00:47:10;;;;;;;6.20;2.47;;;;;;;;;;5037383;28;20128;-58
2022/04/02 00:49:36;;;;;;;4.60;2.67;;;;;;;;;;5043192;28;20327;-59
2022/04/02 00:52:09;;;;;;;5.00;2.83;;;;;;;;;;5037227;28;20128;-59
2022/04/02 00:54:39;;;;;;;5.57;2.97;;;;;;;;;;5040968;28;20136;-59
2022/04/02 00:57:06;;;;;;;9.13;3.00;;;;;;;;;;5041552;28;20525;-58
2022/04/02 00:59:39;;;;;;;6.50;2.80;;;;;;;;;;5040719;28;20076;-59
2022/04/02 01:02:05;;;;;;;5.25;2.67;;;;;;;;;;5036569;28;20100;-59
2022/04/02 01:04:32;;;;;;;5.57;2.67;;;;;;;;;;5039477;28;20046;-59
2022/04/02 01:07:05;;;;;;;9.97;3.20;;;;;;;;;;5022623;28;20599;-59
2022/04/02 01:09:32;;;;;;;9.82;2.65;;;;;;;;;;5039414;28;20136;-59
2022/04/02 01:11:58;;;;;;;3.90;2.70;;;;;;;;;;5039993;28;20084;-59
2022/04/02 01:14:25;;;;;;;6.50;2.83;;;;;;;;;;5036688;28;20292;-59
2022/04/02 01:16:51;;;;;;;4.73;2.67;;;;;;;;;;5043404;28;20057;-61
2022/04/02 01:19:18;;;;;;;4.63;2.43;;;;;;;;;;5041647;28;20577;-61
2022/04/02 01:21:46;;;;;;;11.40;2.97;;;;;;;;;;5039158;28;20684;-61
2022/04/02 01:24:13;;;;;;;7.83;3.00;;;;;;;;;;5040435;28;20456;-61
2022/04/02 01:26:39;;;;;;;7.50;2.78;;;;;;;;;;5038418;28;20052;-61
2022/04/02 01:29:13;;;;;;;5.33;2.70;;;;;;;;;;5039384;28;20077;-61
2022/04/02 01:31:43;;;;;;;3.20;2.30;;;;;;;;;;5039814;28;20155;-60
2022/04/02 01:34:09;;;;;;;9.03;3.20;;;;;;;;;;5039417;28;20069;-60
2022/04/02 01:36:36;;;;;;;6.18;2.90;;;;;;;;;;5038025;28;20121;-60
2022/04/02 01:39:03;;;;;;;4.50;2.67;;;;;;;;;;5041253;28;20120;-62
2022/04/02 01:41:29;;;;;;;6.78;2.67;;;;;;;;;;5038459;28;20378;-61
2022/04/02 01:44:02;;;;;;;6.63;3.27;;;;;;;;;;5038901;28;20092;-61
2022/04/02 01:46:29;;;;;;;8.80;3.42;;;;;;;;;;5040366;28;20045;-60
2022/04/02 01:48:55;;;;;;;5.93;2.95;;;;;;;;;;5040308;28;20048;-61
2022/04/02 01:51:22;;;;;;;10.52;3.42;;;;;;;;;;5041137;28;20144;-61
2022/04/02 01:53:54;;;;;;;6.77;3.20;;;;;;;;;;5038154;28;20505;-61
2022/04/02 01:56:21;;;;;;;6.70;3.13;;;;;;;;;;5039530;28;20176;-60
2022/04/02 01:58:47;;;;;;;6.60;2.33;;;;;;;;;;5040999;28;20103;-60
2022/04/02 02:01:15;;;;;;;9.70;3.43;;;;;;;;;;5039657;28;20080;-61
2022/04/02 02:03:42;;;;;;;11.48;3.10;;;;;;;;;;5040008;28;20124;-60
2022/04/02 02:06:08;;;;;;;5.95;3.15;;;;;;;;;;5038594;28;20053;-59
2022/04/02 02:08:39;;;;;;;4.90;2.73;;;;;;;;;;5041388;28;20480;-60
2022/04/02 02:11:05;;;;;;;7.00;3.67;;;;;;;;;;5038696;28;20144;-60
2022/04/02 02:13:32;;;;;;;4.65;2.67;;;;;;;;;;5038927;28;20076;-60
2022/04/02 02:16:04;;;;;;;11.30;3.50;;;;;;;;;;5021998;28;20168;-60
2022/04/02 02:18:31;;;;;;;5.03;2.90;;;;;;;;;;5041238;28;20057;-61
2022/04/02 02:20:58;;;;;;;10.40;3.38;;;;;;;;;;5027942;28;20143;-61
2022/04/02 02:23:25;;;;;;;7.68;2.90;;;;;;;;;;5041477;28;20474;-60
2022/04/02 02:25:51;;;;;;;5.17;3.30;;;;;;;;;;5039901;28;20495;-60
2022/04/02 02:28:17;;;;;;;9.18;3.20;;;;;;;;;;5028655;28;20148;-60
2022/04/02 02:30:45;;;;;;;;;;;;;;;;;;5044691;28;20077;-60
2022/04/02 02:36:03;;;;;;;8.97;3.23;;;;;;;;;;5042042;28;20144;-60
2022/04/02 02:38:29;;;;;;;9.07;2.85;;;;;;;;;;5039160;28;20076;-60
2022/04/02 02:40:55;;;;;;;5.97;3.00;;;;;;;;;;5039877;28;20091;-60
2022/04/02 02:43:23;;;;;;;6.45;3.40;;;;;;;;;;5035267;28;20145;-61
2022/04/02 02:45:50;;;;;;;12.85;3.38;;;;;;;;;;5041310;28;20136;-60
2022/04/02 02:48:17;;;;;;;6.63;3.77;;;;;;;;;;5038852;28;20053;-60
2022/04/02 02:50:44;;;;;;;4.68;2.30;;;;;;;;;;5039013;28;20180;-60
2022/04/02 02:53:11;;;;;;;6.95;2.92;;;;;;;;;;5037689;28;20076;-56
2022/04/02 02:55:38;;;;;;;;;;;;;;;;;;5036874;28;20053;-60
2022/04/02 02:58:11;;;;;;;5.33;2.60;;;;;;;;;;5042178;28;19967;-60
2022/04/02 03:00:37;;;;;;;6.27;2.53;;;;;;;;;;5038772;28;20168;-60
2022/04/02 03:03:04;;;;;;;7.07;3.22;;;;;;;;;;5039389;28;20045;-60
2022/04/02 03:05:32;;;;;;;8.70;3.20;;;;;;;;;;5037641;28;20103;-60
2022/04/02 03:07:58;;;;;;;11.73;3.85;;;;;;;;;;5036805;28;20132;-60
2022/04/02 03:10:26;;;;;;;6.07;2.80;;;;;;;;;;5035435;28;20136;-61
2022/04/02 03:13:00;;;;;;;5.90;3.00;;;;;;;;;;5039309;28;20073;-60
2022/04/02 03:15:26;;;;;;;6.47;2.08;;;;;;;;;;5037029;28;20146;-59
2022/04/02 03:17:53;;;;;;;9.63;3.23;;;;;;;;;;5038329;28;20076;-60
2022/04/02 03:20:21;;;;;;;7.37;3.23;;;;;;;;;;5037868;28;20140;-60
2022/04/02 03:22:48;;;;;;;8.05;2.95;;;;;;;;;;5037371;28;20085;-59
2022/04/02 03:25:16;;;;;;;5.10;2.42;;;;;;;;;;5038408;28;20064;-60
2022/04/02 03:27:49;;;;;;;6.27;2.77;;;;;;;;;;5040172;28;20045;-60
2022/04/02 03:30:16;;;;;;;5.57;2.58;;;;;;;;;;5038738;28;20080;-61
2022/04/02 03:32:43;;;;;;;8.57;3.37;;;;;;;;;;5042008;28;20064;-60
2022/04/02 03:35:14;;;;;;;6.90;3.13;;;;;;;;;;5042107;28;20495;-60
2022/04/02 03:37:41;;;;;;;5.23;3.00;;;;;;;;;;5042102;28;20401;-60
2022/04/02 03:40:09;;;;;;;7.60;3.28;;;;;;;;;;5040298;28;20083;-60
2022/04/02 03:42:49;;;;;;;6.13;3.10;;;;;;;;;;5044396;28;20136;-60
2022/04/02 03:45:16;;;;;;;5.33;3.20;;;;;;;;;;5039436;28;20508;-60
2022/04/02 03:47:43;;;;;;;8.90;3.53;;;;;;;;;;5045166;28;20045;-60
2022/04/02 03:50:10;;;;;;;7.70;3.22;;;;;;;;;;5041185;28;20136;-59
2022/04/02 03:52:36;;;;;;;6.35;2.45;;;;;;;;;;5041759;28;20139;-60
2022/04/02 03:55:08;;;;;;;8.53;3.30;;;;;;;;;;5041740;28;20143;-60
2022/04/02 03:57:35;;;;;;;6.97;3.40;;;;;;;;;;5040096;28;20045;-59
2022/04/02 04:00:03;;;;;;;7.28;3.00;;;;;;;;;;5030984;28;20504;-60
2022/04/02 04:02:37;;;;;;;9.53;3.47;;;;;;;;;;5041762;28;20088;-60
2022/04/02 04:05:06;;;;;;;6.38;3.10;;;;;;;;;;5040793;28;20049;-59
2022/04/02 04:07:32;;;;;;;7.17;3.23;;;;;;;;;;5045950;28;20042;-60
2022/04/02 04:10:00;;;;;;;12.63;3.60;;;;;;;;;;5040553;28;20135;-60
2022/04/02 04:12:26;;;;;;;7.07;3.33;;;;;;;;;;5040618;28;20057;-60
2022/04/02 04:14:53;;;;;;;8.30;4.03;;;;;;;;;;5042841;28;20136;-60
2022/04/02 04:17:26;;;;;;;12.03;4.23;;;;;;;;;;5029058;28;20288;-59
2022/04/02 04:19:52;;;;;;;9.75;4.20;;;;;;;;;;5042502;28;20081;-60
2022/04/02 04:22:20;;;;;;;9.10;3.17;;;;;;;;;;5040313;28;20076;-60
2022/04/02 04:24:54;;;;;;;6.43;3.47;;;;;;;;;;5039984;28;20650;-60
2022/04/02 04:27:20;;;;;;;6.60;2.97;;;;;;;;;;5042788;28;20475;-60
2022/04/02 04:29:47;;;;;;;6.03;3.20;;;;;;;;;;5042320;28;20132;-60
2022/04/02 04:32:14;;;;;;;8.77;4.43;;;;;;;;;;5041774;28;20143;-60
2022/04/02 04:34:40;;;;;;;6.30;2.10;;;;;;;;;;5042415;28;20080;-59
2022/04/02 04:37:06;;;;;;;5.20;3.50;;;;;;;;;;5043129;28;20053;-60
2022/04/02 04:39:40;;;;;;;6.80;3.60;;;;;;;;;;5039898;28;20132;-59
2022/04/02 04:42:07;;;;;;;6.38;3.22;;;;;;;;;;5045160;28;20091;-60
2022/04/02 04:44:33;;;;;;;7.63;3.42;;;;;;;;;;5040625;28;20076;-60
2022/04/02 04:47:00;;;;;;;6.15;3.13;;;;;;;;;;5041493;28;20088;-59
2022/04/02 04:49:26;;;;;;;7.13;3.10;;;;;;;;;;5040805;28;20527;-60
2022/04/02 04:51:54;;;;;;;6.77;3.90;;;;;;;;;;5038051;28;20139;-59
2022/04/02 04:54:20;;;;;;;7.10;2.85;;;;;;;;;;5040496;28;20136;-60
2022/04/02 04:56:47;;;;;;;5.10;3.00;;;;;;;;;;5041737;28;20221;-60
2022/04/02 04:59:13;;;;;;;5.30;2.60;;;;;;;;;;5040624;28;20449;-60
2022/04/02 05:01:40;;;;;;;5.57;3.20;;;;;;;;;;5041753;28;20123;-60
2022/04/02 05:04:07;;;;;;;7.68;3.78;;;;;;;;;;5041006;28;20496;-60
2022/04/02 05:06:37;;;;;;;9.18;3.75;;;;;;;;;;5041809;28;20053;-60
2022/04/02 05:09:04;;;;;;;9.33;3.57;;;;;;;;;;5038921;28;20049;-60
2022/04/02 05:11:31;;;;;;;7.13;3.43;;;;;;;;;;5038540;28;20052;-60
2022/04/02 05:13:58;;;;;;;7.00;3.20;;;;;;;;;;5037438;28;20120;-60
2022/04/02 05:16:26;;;;;;;6.78;3.55;;;;;;;;;;5038939;28;20048;-60
2022/04/02 05:18:59;;;;;;;6.13;3.27;;;;;;;;;;5036233;28;20421;-60
2022/04/02 05:21:26;;;;;;;5.40;2.85;;;;;;;;;;5037663;28;20057;-60
2022/04/02 05:23:52;;;;;;;13.75;3.10;;;;;;;;;;5038297;28;20461;-60
2022/04/02 05:26:19;;;;;;;7.78;3.60;;;;;;;;;;5040705;28;20153;-58
2022/04/02 05:28:51;;;;;;;6.80;3.00;;;;;;;;;;5038551;28;20045;-60
2022/04/02 05:31:17;;;;;;;7.18;3.30;;;;;;;;;;5035835;28;20145;-61
2022/04/02 05:33:44;;;;;;;6.20;2.92;;;;;;;;;;5037669;28;20081;-62
2022/04/02 05:36:11;;;;;;;7.13;3.17;;;;;;;;;;5036826;28;20056;-60
2022/04/02 05:38:38;;;;;;;6.43;2.83;;;;;;;;;;5038328;28;20135;-60
2022/04/02 05:41:06;;;;;;;7.00;3.10;;;;;;;;;;5038380;28;20156;-60
2022/04/02 05:43:33;;;;;;;4.60;2.58;;;;;;;;;;5049587;28;20053;-59
2022/04/02 05:45:59;;;;;;;7.43;3.28;;;;;;;;;;5056235;28;20116;-60
2022/04/02 05:48:26;;;;;;;9.98;2.83;;;;;;;;;;5060630;28;20049;-60
2022/04/02 05:50:52;;;;;;;9.88;3.38;;;;;;;;;;5056891;28;20500;-60
2022/04/02 05:53:19;;;;;;;4.83;2.70;;;;;;;;;;5061376;28;20139;-61
2022/04/02 05:55:47;;;;;;;9.17;3.87;;;;;;;;;;5060577;28;20354;-60
2022/04/02 05:58:13;;;;;;;7.63;3.80;;;;;;;;;;5038160;28;20135;-61
2022/04/02 06:00:40;;;;;;;11.13;3.50;;;;;;;;;;5056399;28;20044;-61
2022/04/02 06:03:08;;;;;;;6.00;3.43;;;;;;;;;;5054738;28;20490;-60
2022/04/02 06:05:35;;;;;;;8.20;3.38;;;;;;;;;;5056652;28;20045;-61
2022/04/02 06:08:02;;;;;;;8.18;3.67;;;;;;;;;;5055246;28;20044;-61
2022/04/02 06:10:28;;;;;;;6.75;2.45;;;;;;;;;;5057736;28;20132;-59
2022/04/02 06:12:55;;;;;;;4.97;2.53;;;;;;;;;;5055315;28;20118;-61
2022/04/02 06:15:24;;;;;;;7.73;3.20;;;;;;;;;;5054542;28;20163;-61
2022/04/02 06:17:52;;;;;;;8.37;3.73;;;;;;;;;;5053888;28;20656;-61
2022/04/02 06:20:19;;;;;;;5.32;2.70;;;;;;;;;;5055498;28;20049;-60
2022/04/02 06:22:45;;;;;;;5.10;2.80;;;;;;;;;;5055766;28;20591;-61
2022/04/02 06:25:12;;;;;;;8.10;3.85;;;;;;;;;;5058601;28;20131;-61
2022/04/02 06:27:42;;;;;;;10.07;3.80;;;;;;;;;;5057128;28;20099;-61
2022/04/02 06:30:10;;;;;;;8.43;3.67;;;;;;;;;;5056460;28;20357;-61
2022/04/02 06:32:38;;;;;;;11.20;4.20;;;;;;;;;;5063125;28;20102;-61
2022/04/02 06:35:05;;;;;;;7.37;3.33;;;;;;;;;;5060133;28;20045;-61
2022/04/02 06:37:35;;;;;;;4.55;2.53;;;;;;;;;;5059756;28;20143;-61
2022/04/02 06:40:09;;;;;;;6.93;3.53;;;;;;;;;;5063266;28;20106;-61
2022/04/02 06:42:36;;;;;;;8.00;3.70;;;;;;;;;;5057006;28;20049;-61
2022/04/02 06:45:03;;;;;;;8.55;3.10;;;;;;;;;;5058975;28;20453;-61
2022/04/02 06:47:30;;;;;;;6.65;2.65;;;;;;;;;;5057796;28;20148;-61
2022/04/02 06:49:57;;;;;;;6.88;3.40;;;;;;;;;;5060488;28;20413;-62
2022/04/02 06:52:30;;;;;;;6.73;3.50;;;;;;;;;;5060501;28;20530;-62
2022/04/02 06:54:56;;;;;;;7.50;3.25;;;;;;;;;;5059431;28;20505;-62
2022/04/02 06:57:23;;;;;;;6.95;3.13;;;;;;;;;;5060276;28;20144;-62
2022/04/02 06:59:50;;;;;;;10.65;3.20;;;;;;;;;;5060541;28;20587;-62
2022/04/02 07:02:18;;;;;;;5.65;2.47;;;;;;;;;;5055279;28;20068;-62
2022/04/02 07:04:45;;;;;;;8.20;3.45;;;;;;;;;;5055518;28;20159;-62
2022/04/02 07:07:11;;;;;;;5.80;2.77;;;;;;;;;;5055427;28;20135;-63
2022/04/02 07:09:38;;;;;;;5.90;2.40;;;;;;;;;;5055085;28;20132;-62
2022/04/02 07:12:05;;;;;;;6.57;2.65;;;;;;;;;;5054667;28;20401;-62
2022/04/02 07:14:33;;;;;;;7.05;3.17;;;;;;;;;;5048466;28;20135;-61
2022/04/02 07:16:59;;;;;;;8.35;3.80;;;;;;;;;;5054231;28;20419;-61
2022/04/02 07:19:27;;;;;;;9.83;2.53;;;;;;;;;;5051459;28;20052;-61
2022/04/02 07:21:56;;;;;;;5.85;3.03;;;;;;;;;;5057513;28;20143;-61
2022/04/02 07:24:23;;;;;;;;;;;;;;;;;;5056161;28;20091;-61
2022/04/02 07:26:51;;;;;;;5.35;2.97;;;;;;;;;;5056078;28;20006;-62
2022/04/02 07:29:18;;;;;;;8.70;3.00;;;;;;;;;;5055270;28;20084;-61
2022/04/02 07:31:44;;;;;;;5.22;2.75;;;;;;;;;;5055025;28;20131;-61
2022/04/02 07:34:18;;;;;;;4.50;3.00;;;;;;;;;;5053700;28;20045;-62
2022/04/02 07:36:55;;;;;;;6.75;3.85;;;;;;;;;;5053464;28;20179;-62
2022/04/02 07:39:25;;;;;;;5.63;2.80;;;;;;;;;;5056353;28;20655;-62
2022/04/02 07:42:07;;;;;;;4.70;2.72;;;;;;;;;;5054288;28;20124;-62
2022/04/02 07:44:42;;;;;;;6.78;2.33;;;;;;;;;;5055790;28;20143;-62
2022/04/02 07:47:12;;;;;;;8.70;2.92;;;;;;;;;;5034971;28;20159;-62
2022/04/02 07:49:39;;;;;;;5.13;2.20;;;;;;;;;;5053472;28;20110;-63
2022/04/02 07:52:06;;;;;;;;;;;;;;;;;;5053715;28;20132;-62
2022/04/02 07:54:37;;;;;;;4.75;2.15;;;;;;;;;;5054174;28;19969;-63
2022/04/02 07:57:03;;;;;;;4.30;2.40;;;;;;;;;;5052860;28;20124;-64
2022/04/02 07:59:32;;;;;;;2.75;1.90;;;;;;;;;;5054277;28;20147;-64
2022/04/02 08:01:59;;;;;;;3.25;2.08;;;;;;;;;;5054193;28;20163;-64
2022/04/02 08:04:26;;;;;;;2.75;1.90;;;;;;;;;;5054417;28;20044;-64
2022/04/02 08:06:52;;;;;;;3.38;1.77;;;;;;;;;;5052808;28;20117;-63
2022/04/02 08:09:20;;;;;;;5.90;2.00;;;;;;;;;;5036387;28;20143;-64
2022/04/02 08:11:48;;;;;;;5.40;2.33;;;;;;;;;;5055533;28;20067;-64
2022/04/02 08:14:15;;;;;;;6.35;2.05;;;;;;;;;;5055139;28;20055;-65
2022/04/02 08:16:43;;;;;;;3.25;2.03;;;;;;;;;;5054917;28;21026;-65
2022/04/02 08:19:10;;;;;;;7.20;2.15;;;;;;;;;;5058123;28;20660;-65
2022/04/02 08:21:37;;;;;;;2.88;1.63;;;;;;;;;;5059553;28;20140;-65
2022/04/02 08:24:07;;;;;;;6.68;1.65;;;;;;;;;;5063207;28;20578;-65
2022/04/02 08:26:39;;;;;;;4.25;1.63;;;;;;;;;;5062553;28;20051;-65
2022/04/02 08:29:05;;;;;;;2.65;1.60;;;;;;;;;;5061775;28;20056;-65
2022/04/02 08:31:40;;;;;;;8.93;1.92;;;;;;;;;;5057340;28;20531;-66
2022/04/02 08:34:13;;;;;;;3.78;1.40;;;;;;;;;;5055963;28;20135;-66
2022/04/02 08:37:22;;;;;;;4.93;1.67;;;;;;;;;;5060033;28;20486;-66
2022/04/02 08:40:01;;;;;;;3.65;1.60;;;;;;;;;;5002950;28;20568;-66
2022/04/02 08:42:47;;;;;;;2.80;1.50;;;;;;;;;;4999377;28;20148;-66
2022/04/02 08:45:15;;;;;;;4.15;1.80;;;;;;;;;;5038199;28;20131;-66
2022/04/02 08:48:00;;;;;;;2.42;1.48;;;;;;;;;;5057332;28;20041;-67
2022/04/02 08:50:29;;;;;;;3.45;1.48;;;;;;;;;;5059084;28;20530;-66
2022/04/02 08:53:07;;;;;;;2.17;1.20;;;;;;;;;;5057744;28;20136;-66
2022/04/02 08:55:34;;;;;;;;;;;;;;;;;;5058363;28;20128;-67
2022/04/02 08:58:08;;;;;;;2.72;1.30;;;;;;;;;;5058767;28;20019;-67
2022/04/02 09:00:37;;;;;;;3.20;1.10;;;;;;;;;;5057925;28;20127;-67
2022/04/02 09:03:20;;;;;;;3.05;1.02;;;;;;;;;;5054563;28;20055;-66
2022/04/02 09:05:49;;;;;;;3.05;1.27;;;;;;;;;;5057412;28;20602;-67
2022/04/02 09:08:35;;;;;;;2.00;1.17;;;;;;;;;;5037921;28;20608;-67
2022/04/02 09:11:01;;;;;;;2.10;1.20;;;;;;;;;;5058425;28;20064;-67
2022/04/02 09:13:49;;;;;;;4.68;1.13;;;;;;;;;;5058294;28;20145;-67
2022/04/02 09:16:26;;;;;;;3.10;1.38;;;;;;;;;;5056650;28;20127;-67
2022/04/02 09:19:13;;;;;;;3.08;1.30;;;;;;;;;;5058190;28;20072;-67
2022/04/02 09:21:58;;;;;;;8.45;1.30;;;;;;;;;;5057087;28;20053;-67
2022/04/02 09:24:45;;;;;;;1.33;1.08;;;;;;;;;;5058257;28;20127;-67
2022/04/02 09:27:30;;;;;;;3.83;0.95;;;;;;;;;;5016209;28;20075;-67
2022/04/02 09:30:00;;;;;;;2.50;0.80;;;;;;;;;;5058389;28;20051;-67
2022/04/02 09:32:42;;;;;;;1.15;0.80;;;;;;;;;;5058335;28;20135;-67
2022/04/02 09:35:32;;;;;;;2.00;0.80;;;;;;;;;;5061310;28;20123;-67
2022/04/02 09:38:19;;;;;;;2.92;1.30;;;;;;;;;;5063796;28;20147;-68
2022/04/02 09:40:48;;;;;;;1.92;1.20;;;;;;;;;;5042009;28;20051;-68
2022/04/02 09:43:25;;;;;;;2.60;0.90;;;;;;;;;;5047012;28;20052;-67
2022/04/02 09:45:58;;;;;;;3.10;0.80;;;;;;;;;;5036949;28;20148;-68
2022/04/02 09:48:30;;;;;;;2.90;1.05;;;;;;;;;;5038458;28;20049;-68
2022/04/02 09:50:57;;;;;;;0.80;0.70;;;;;;;;;;5036942;28;20049;-68
2022/04/02 09:53:25;;;;;;;6.95;1.17;;;;;;;;;;5036573;28;20479;-67
2022/04/02 09:55:57;;;;;;;1.10;0.75;;;;;;;;;;5037075;28;20111;-68
2022/04/02 09:58:27;;;;;;;2.30;0.90;;;;;;;;;;5035628;28;20056;-68
2022/04/02 10:00:57;;;;;;;2.50;0.90;;;;;;;;;;5036567;28;20077;-69
2022/04/02 10:03:38;;;;;;;0.95;0.88;;;;;;;;;;5035328;28;20048;-68
2022/04/02 10:06:23;;;;;;;2.08;0.80;;;;;;;;;;5040141;28;20048;-68
2022/04/02 10:08:58;;;;;;;1.15;1.00;;;;;;;;;;5038775;28;20125;-68
2022/04/02 10:11:27;;;;;;;2.28;0.85;;;;;;;;;;5039306;28;20085;-69
2022/04/02 10:13:57;;;;;;;1.38;0.60;;;;;;;;;;5037582;28;20611;-68
2022/04/02 10:16:24;;;;;;;1.95;0.65;;;;;;;;;;5037100;28;20053;-68
2022/04/02 10:18:59;;;;;;;1.55;1.05;;;;;;;;;;5036883;28;20048;-68
2022/04/02 10:21:27;;;;;;;1.23;0.70;;;;;;;;;;5037486;28;20116;-69
2022/04/02 10:23:57;;;;;;;7.25;1.27;;;;;;;;;;5036446;28;20088;-68
2022/04/02 10:26:24;;;;;;;1.33;1.00;;;;;;;;;;5035424;28;20127;-69
2022/04/02 10:28:58;;;;;;;2.28;1.00;;;;;;;;;;5036997;28;20133;-69
2022/04/02 10:31:42;;;;;;;2.15;0.77;;;;;;;;;;5036792;28;20048;-69
2022/04/02 10:34:16;;;;;;;3.47;0.90;;;;;;;;;;5037532;28;20119;-69
2022/04/02 10:36:48;;;;;;;1.02;0.80;;;;;;;;;;5037411;28;20077;-69
2022/04/02 10:39:15;;;;;;;3.00;1.13;;;;;;;;;;5036575;28;20045;-68
2022/04/02 10:41:43;;;;;;;1.53;0.90;;;;;;;;;;5038247;28;20503;-68
2022/04/02 10:44:16;;;;;;;1.52;0.82;;;;;;;;;;5055818;28;20167;-69
2022/04/02 10:46:44;;;;;;;1.17;0.80;;;;;;;;;;5056811;28;20087;-68
2022/04/02 10:49:12;;;;;;;0.90;0.80;;;;;;;;;;5058231;28;20083;-69
2022/04/02 10:51:42;;;;;;;2.00;0.82;;;;;;;;;;5061764;28;20723;-68
2022/04/02 10:54:12;;;;;;;0.80;0.65;;;;;;;;;;5057894;28;20135;-68
2022/04/02 10:56:46;;;;;;;1.70;0.90;;;;;;;;;;5058613;28;20135;-69
2022/04/02 10:59:14;;;;;;;1.52;0.80;;;;;;;;;;5058453;28;20099;-69
2022/04/02 11:01:42;;;;;;;1.83;1.05;;;;;;;;;;5054415;28;20560;-69
2022/04/02 11:04:33;;;;;;;1.13;0.80;;;;;;;;;;5059114;28;20048;-69
2022/04/02 11:06:59;;;;;;;1.65;0.82;;;;;;;;;;5031056;28;20136;-69
2022/04/02 11:09:38;;;;;;;2.15;1.05;;;;;;;;;;5059470;28;20053;-69
2022/04/02 11:12:05;;;;;;;;;;;;;;;;;;5057535;28;20137;-69
2022/04/02 11:14:42;;;;;;;3.83;0.98;;;;;;;;;;5061058;28;19968;-69
2022/04/02 11:17:24;;;;;;;1.67;0.80;;;;;;;;;;5056401;28;20076;-70
2022/04/02 11:20:04;;;;;;;2.92;0.95;;;;;;;;;;5058685;28;20451;-70
2022/04/02 11:22:49;;;;;;;2.83;1.13;;;;;;;;;;5059297;28;20137;-70
2022/04/02 11:25:32;;;;;;;4.85;1.20;;;;;;;;;;5057654;28;20088;-69
2022/04/02 11:28:09;;;;;;;1.48;0.93;;;;;;;;;;5057422;28;20479;-69
2022/04/02 11:30:37;;;;;;;2.10;1.15;;;;;;;;;;5059155;28;20596;-69
2022/04/02 11:33:05;;;;;;;3.25;0.85;;;;;;;;;;5058048;28;20701;-69
2022/04/02 11:35:35;;;;;;;0.80;0.70;;;;;;;;;;5058634;28;20049;-69
2022/04/02 11:38:22;;;;;;;2.72;0.88;;;;;;;;;;5058722;28;20135;-69
2022/04/02 11:40:49;;;;;;;2.50;0.75;;;;;;;;;;5057512;28;20120;-69
2022/04/02 11:43:29;;;;;;;3.92;1.17;;;;;;;;;;5048248;28;20140;-69
2022/04/02 11:46:03;;;;;;;1.75;0.90;;;;;;;;;;5037005;28;20481;-70
2022/04/02 11:48:32;;;;;;;3.13;1.08;;;;;;;;;;5037904;28;20390;-69
2022/04/02 11:51:15;;;;;;;3.15;0.90;;;;;;;;;;5040458;28;20081;-70
2022/04/02 11:53:44;;;;;;;2.13;0.70;;;;;;;;;;5044567;28;20140;-69
2022/04/02 11:56:28;;;;;;;1.73;0.80;;;;;;;;;;5038360;28;20573;-70
2022/04/02 11:59:05;;;;;;;1.40;0.80;;;;;;;;;;5044762;28;20076;-70
2022/04/02 12:01:58;;;;;;;1.52;0.85;;;;;;;;;;5044428;28;20049;-70
2022/04/02 12:04:25;;;;;;;1.25;0.68;;;;;;;;;;5039135;28;20068;-70
2022/04/02 12:06:53;;;;;;;3.85;1.42;;;;;;;;;;5042318;28;20091;-70
2022/04/02 12:09:23;;;;;;;1.48;1.00;;;;;;;;;;5041144;28;20385;-69
2022/04/02 12:11:57;;;;;;;4.78;0.65;;;;;;;;;;5041512;28;20111;-70
2022/04/02 12:14:27;;;;;;;1.33;1.00;;;;;;;;;;5039799;28;20119;-69
2022/04/02 12:16:57;;;;;;;1.60;1.05;;;;;;;;;;5042350;28;20096;-69
2022/04/02 12:19:32;;;;;;;1.45;0.90;;;;;;;;;;5043321;28;20143;-70
2022/04/02 12:22:00;;;;;;;8.88;1.00;;;;;;;;;;5040480;28;20111;-69
2022/04/02 12:24:37;;;;;;;3.38;1.20;;;;;;;;;;5042071;28;20048;-70
2022/04/02 12:27:11;;;;;;;2.25;0.90;;;;;;;;;;5025561;28;20124;-70
2022/04/02 12:29:44;;;;;;;6.22;1.13;;;;;;;;;;5043966;28;20588;-70
2022/04/02 12:32:28;;;;;;;0.80;0.80;;;;;;;;;;5041346;28;20129;-70
2022/04/02 12:35:03;;;;;;;1.95;0.90;;;;;;;;;;5033876;28;20141;-70
2022/04/02 12:37:32;;;;;;;5.68;1.23;;;;;;;;;;5040413;28;20139;-70
2022/04/02 12:39:59;;;;;;;1.40;0.98;;;;;;;;;;5040020;28;20136;-70
2022/04/02 12:42:39;;;;;;;2.38;0.90;;;;;;;;;;5044481;28;20132;-70
2022/04/02 12:45:14;;;;;;;1.65;1.05;;;;;;;;;;5062728;28;20500;-70
2022/04/02 12:47:54;;;;;;;5.80;1.10;;;;;;;;;;5062440;28;20408;-71
2022/04/02 12:50:20;;;;;;;2.70;1.10;;;;;;;;;;5061239;28;20119;-70
2022/04/02 12:52:49;;;;;;;1.67;0.85;;;;;;;;;;5062953;28;20639;-70
2022/04/02 12:55:17;;;;;;;2.50;1.08;;;;;;;;;;5059410;28;20471;-71
2022/04/02 12:57:55;;;;;;;1.83;1.10;;;;;;;;;;5061544;28;20132;-70
2022/04/02 13:00:29;;;;;;;7.38;1.20;;;;;;;;;;5058498;28;20583;-70
2022/04/02 13:03:00;;;;;;;2.75;1.38;;;;;;;;;;5061271;28;20076;-70
2022/04/02 13:05:44;;;;;;;2.15;1.10;;;;;;;;;;5058213;28;20217;-69
2022/04/02 13:08:13;;;;;;;1.45;1.00;;;;;;;;;;5061883;28;20542;-69
2022/04/02 13:10:44;;;;;;;3.85;1.35;;;;;;;;;;5061973;28;20860;-70
2022/04/02 13:13:12;;;;;;;2.35;1.17;;;;;;;;;;5058738;28;20464;-70
2022/04/02 13:15:39;;;;;;;3.55;1.13;;;;;;;;;;5062171;28;20091;-70
2022/04/02 13:21:07;;;;;;;2.88;1.10;;;;;;;;;;5059240;28;20128;-69
2022/04/02 13:23:54;;;;;;;2.33;0.90;;;;;;;;;;5057312;28;20057;-70
2022/04/02 13:26:29;;;;;;;2.17;1.13;;;;;;;;;;5060519;28;20060;-69
2022/04/02 13:29:11;;;;;;;5.30;1.02;;;;;;;;;;5062807;28;20087;-69
2022/04/02 13:32:00;;;;;;;2.05;1.05;;;;;;;;;;5062133;28;20111;-69
2022/04/02 13:34:40;;;;;;;2.17;1.15;;;;;;;;;;5064263;28;20523;-69
2022/04/02 13:37:26;;;;;;;3.35;1.33;;;;;;;;;;5058531;28;20048;-69
2022/04/02 13:39:59;;;;;;;3.45;1.33;;;;;;;;;;5059537;28;20121;-69
2022/04/02 13:42:31;;;;;;;2.58;1.30;;;;;;;;;;5058245;28;20078;-68
2022/04/02 13:45:00;;;;;;;1.42;0.85;;;;;;;;;;5041865;28;20049;-69
2022/04/02 13:47:30;;;;;;;1.38;0.90;;;;;;;;;;5039770;28;20044;-68
2022/04/02 13:49:57;;;;;;;3.70;1.02;;;;;;;;;;5043022;28;20048;-69
2022/04/02 13:52:25;;;;;;;2.67;1.05;;;;;;;;;;5045237;28;20471;-69
2022/04/02 13:54:51;;;;;;;;;;;;;;;;;;5038514;28;20049;-69
2022/04/02 13:57:19;;;;;;;5.93;1.00;;;;;;;;;;5041084;28;19963;-69
2022/04/02 13:59:46;;;;;;;0.82;0.60;;;;;;;;;;5039678;28;20132;-69
2022/04/02 14:02:19;;;;;;;2.38;0.90;;;;;;;;;;5040235;28;20132;-69
2022/04/02 14:04:50;;;;;;;2.35;0.90;;;;;;;;;;5042348;28;20131;-69
2022/04/02 14:07:21;;;;;;;3.13;1.17;;;;;;;;;;5040259;28;20049;-68
2022/04/02 14:09:52;;;;;;;5.13;1.33;;;;;;;;;;5043322;28;20081;-69
2022/04/02 14:12:20;;;;;;;2.55;1.13;;;;;;;;;;5043726;28;20492;-68
2022/04/02 14:14:57;;;;;;;2.60;0.85;;;;;;;;;;5040221;28;20080;-68
2022/04/02 14:17:29;;;;;;;3.97;1.17;;;;;;;;;;5039038;28;20049;-68
2022/04/02 14:20:06;;;;;;;3.67;0.95;;;;;;;;;;5037798;28;20136;-69
2022/04/02 14:22:45;;;;;;;1.73;0.90;;;;;;;;;;5035051;28;20049;-68
2022/04/02 14:25:16;;;;;;;1.97;1.03;;;;;;;;;;5041496;28;20643;-68
2022/04/02 14:27:58;;;;;;;2.03;1.10;;;;;;;;;;5021345;28;20334;-68
2022/04/02 14:30:34;;;;;;;2.05;0.95;;;;;;;;;;5037177;28;20132;-68
2022/04/02 14:33:20;;;;;;;2.80;1.10;;;;;;;;;;5040982;28;20115;-67
2022/04/02 14:35:46;;;;;;;2.58;1.08;;;;;;;;;;5038671;28;20559;-68
2022/04/02 14:38:37;;;;;;;1.45;0.80;;;;;;;;;;5036524;28;20080;-69
2022/04/02 14:41:23;;;;;;;1.77;0.70;;;;;;;;;;5042136;28;20132;-68
2022/04/02 14:44:19;;;;;;;5.53;1.10;;;;;;;;;;5055701;28;20114;-68
2022/04/02 14:47:01;;;;;;;4.22;1.35;;;;;;;;;;5056217;28;20049;-68
2022/04/02 14:49:37;;;;;;;2.63;1.02;;;;;;;;;;5058998;28;20526;-68
2022/04/02 14:52:34;;;;;;;1.65;1.10;;;;;;;;;;5060177;28;20072;-68
2022/04/02 14:55:03;;;;;;;2.70;1.13;;;;;;;;;;5057305;28;20131;-68
2022/04/02 14:57:50;;;;;;;2.53;1.13;;;;;;;;;;5057308;28;20449;-68
2022/04/02 15:00:27;;;;;;;1.08;0.57;;;;;;;;;;5055460;28;20087;-67
2022/04/02 15:03:20;;;;;;;6.95;1.20;;;;;;;;;;5060420;28;20562;-68
2022/04/02 15:06:06;;;;;;;2.08;1.15;;;;;;;;;;5053545;28;20510;-68
2022/04/02 15:08:34;;;;;;;4.82;1.10;;;;;;;;;;5055798;28;20152;-68
2022/04/02 15:11:01;;;;;;;1.58;1.05;;;;;;;;;;5059795;28;20048;-68
2022/04/02 15:13:29;;;;;;;1.20;0.83;;;;;;;;;;5058206;28;20084;-68